Time;durP1;ratioP1;P1;durP2;ratioP2;P2;SDS_P1;SDS_P2;PMS_P1;PMS_P2;Temp;Humidity;BMP_temperature;BMP_pressure;BME280_temperature;BME280_humidity;BME280_pressure;Samples;Min_cycle;Max_cycle;Signal;HPM_P1;HPM_P2
2021/07/31 00:01:21;;;;;;;9.03;5.63;;;;;;;19.58;52.43;99301.53;126478;1090;114232;-78
2021/07/31 00:04:09;;;;;;;10.17;5.93;;;;;;;19.55;51.99;99301.77;126622;1090;102782;-78
2021/07/31 00:06:57;;;;;;;10.53;6.07;;;;;;;19.51;52.34;99295.88;126481;1090;114314;-78
2021/07/31 00:09:45;;;;;;;11.50;6.10;;;;;;;19.49;52.29;99294.33;126778;1090;103058;-78
2021/07/31 00:12:32;;;;;;;9.07;5.20;;;;;;;19.48;52.30;99290.84;126427;1090;114865;-79
2021/07/31 00:15:20;;;;;;;10.47;6.13;;;;;;;19.47;52.44;99278.59;126615;1089;102889;-78
2021/07/31 00:18:10;;;;;;;12.87;5.70;;;;;;;19.47;52.24;99278.59;126595;1089;113058;-79
2021/07/31 00:20:58;;;;;;;10.27;5.80;;;;;;;19.46;52.47;99281.37;126697;1090;102955;-78
2021/07/31 00:23:45;;;;;;;10.38;5.80;;;;;;;19.45;52.32;99282.34;126607;1090;114295;-78
2021/07/31 00:26:33;;;;;;;11.17;6.00;;;;;;;19.45;52.55;99284.98;126645;1088;102868;-78
2021/07/31 00:29:21;;;;;;;9.47;5.97;;;;;;;19.43;52.56;99292.20;126604;1090;102900;-78
2021/07/31 00:32:08;;;;;;;10.73;6.67;;;;;;;19.39;52.83;99290.77;126740;1089;103117;-79
2021/07/31 00:34:56;;;;;;;9.05;6.15;;;;;;;19.35;52.78;99290.19;126623;1090;102847;-79
2021/07/31 00:37:44;;;;;;;;;;;;;;;19.31;52.84;99286.97;126571;1089;114285;-78
2021/07/31 00:40:31;;;;;;;8.00;5.60;;;;;;;19.27;53.06;99288.20;126588;1090;102889;-78
2021/07/31 00:43:22;;;;;;;11.73;6.07;;;;;;;19.25;52.86;99297.22;126464;1090;114132;-78
2021/07/31 00:46:11;;;;;;;9.95;6.10;;;;;;;19.22;53.15;99295.67;126623;1090;102866;-78
2021/07/31 00:49:00;;;;;;;10.23;5.90;;;;;;;19.19;53.25;99287.97;126447;1089;113913;-78
2021/07/31 00:51:49;;;;;;;10.30;6.40;;;;;;;19.17;53.48;99287.27;126523;1090;102853;-78
2021/07/31 00:54:37;;;;;;;10.30;6.03;;;;;;;19.15;53.39;99283.08;126647;1088;114285;-78
2021/07/31 00:57:24;;;;;;;7.63;6.00;;;;;;;19.12;53.37;99289.46;126706;1090;102904;-78
2021/07/31 01:00:39;;;;;;;8.60;6.17;;;;;;;19.11;53.98;99287.78;126529;1090;113922;-79
2021/07/31 01:03:27;;;;;;;7.20;6.10;;;;;;;19.11;54.05;99282.50;126754;1089;102858;-79
2021/07/31 01:06:16;;;;;;;11.13;6.10;;;;;;;19.12;54.23;99284.17;126544;1090;114101;-79
2021/07/31 01:09:05;;;;;;;10.70;6.33;;;;;;;19.14;54.21;99284.05;126590;1090;102962;-79
2021/07/31 01:11:53;;;;;;;7.70;6.80;;;;;;;19.12;54.15;99280.69;126615;1090;114340;-78
2021/07/31 01:14:42;;;;;;;10.70;6.35;;;;;;;19.11;54.15;99269.28;126635;1090;102951;-79
2021/07/31 01:17:31;;;;;;;9.53;6.50;;;;;;;19.07;54.11;99265.22;126681;1088;102891;-78
2021/07/31 01:20:19;;;;;;;12.13;5.63;;;;;;;19.05;54.06;99267.16;126532;1089;114031;-78
2021/07/31 01:23:13;;;;;;;10.37;5.63;;;;;;;19.01;54.08;99260.42;126582;1090;101887;-78
2021/07/31 01:26:02;;;;;;;8.83;6.63;;;;;;;18.98;54.12;99258.04;126555;1090;115072;-79
2021/07/31 01:28:50;;;;;;;9.07;5.97;;;;;;;18.96;53.96;99262.62;126576;1090;104495;-78
2021/07/31 01:31:40;;;;;;;9.57;6.13;;;;;;;18.96;54.15;99270.55;126486;1089;114110;-78
2021/07/31 01:34:28;;;;;;;8.47;5.43;;;;;;;18.95;53.89;99276.80;126597;1088;102931;-78
2021/07/31 01:37:19;;;;;;;10.20;6.40;;;;;;;18.93;54.21;99273.44;126475;1090;114164;-78
2021/07/31 01:40:12;;;;;;;8.10;6.10;;;;;;;18.91;54.32;99275.38;126651;1089;102948;-78
2021/07/31 01:43:00;;;;;;;8.60;5.37;;;;;;;18.85;54.21;99276.72;126627;1088;114119;-79
2021/07/31 01:45:48;;;;;;;9.53;6.17;;;;;;;18.82;54.26;99276.11;126634;1090;102829;-78
2021/07/31 01:48:37;;;;;;;6.33;5.10;;;;;;;18.81;54.06;99279.72;126669;1090;114088;-78
2021/07/31 01:51:24;;;;;;;8.30;5.47;;;;;;;18.80;54.23;99278.05;126664;1090;102955;-78
2021/07/31 01:54:13;;;;;;;7.10;5.30;;;;;;;18.80;53.99;99275.40;126382;1090;114170;-78
2021/07/31 01:57:01;;;;;;;7.20;5.17;;;;;;;18.80;53.85;99270.95;126616;1088;102958;-78
2021/07/31 02:00:15;;;;;;;6.40;5.07;;;;;;;18.81;53.87;99266.51;126591;1089;114107;-78
2021/07/31 02:03:13;;;;;;;10.10;5.17;;;;;;;18.83;53.86;99261.94;126690;1088;103029;-78
2021/07/31 02:06:12;;;;;;;7.40;5.57;;;;;;;18.83;53.89;99257.48;126582;1090;114118;-79
2021/07/31 02:09:01;;;;;;;7.83;5.70;;;;;;;18.84;53.68;99259.17;126602;1090;103119;-79
2021/07/31 02:11:49;;;;;;;9.60;5.40;;;;;;;18.85;53.54;99270.57;126716;1088;102855;-79
2021/07/31 02:14:37;;;;;;;6.43;4.93;;;;;;;18.86;53.49;99277.56;126515;1089;113915;-79
2021/07/31 02:17:25;;;;;;;9.93;6.10;;;;;;;18.84;53.80;99275.02;126693;1090;102875;-79
2021/07/31 02:20:14;;;;;;;11.63;5.63;;;;;;;18.83;53.90;99280.43;126676;1090;114114;-79
2021/07/31 02:23:11;;;;;;;8.90;5.60;;;;;;;18.81;54.08;99285.00;126635;1090;103013;-79
2021/07/31 02:26:17;;;;;;;8.63;5.97;;;;;;;18.83;54.55;99283.07;126602;1089;114583;-79
2021/07/31 02:29:26;;;;;;;;;;;;;;;18.84;54.58;99279.46;126713;1090;102998;-79
2021/07/31 02:32:16;;;;;;;11.03;6.27;;;;;;;18.84;54.54;99274.18;126728;1089;102949;-79
2021/07/31 02:35:08;;;;;;;11.40;6.57;;;;;;;18.84;54.65;99266.25;126535;1090;102935;-79
2021/07/31 02:38:08;;;;;;;7.93;6.03;;;;;;;18.85;54.50;99283.78;126524;1090;113073;-79
2021/07/31 02:40:57;;;;;;;8.47;6.00;;;;;;;18.83;54.94;99285.71;126841;1090;102875;-79
2021/07/31 02:43:45;;;;;;;9.87;6.10;;;;;;;18.76;55.05;99282.74;126673;1090;113851;-79
2021/07/31 02:46:35;;;;;;;14.67;7.23;;;;;;;18.69;55.31;99277.13;126648;1089;102836;-79
2021/07/31 02:49:24;;;;;;;9.50;6.47;;;;;;;18.61;55.67;99268.09;126577;1090;114332;-79
2021/07/31 02:52:12;;;;;;;8.27;6.10;;;;;;;18.52;55.58;99255.66;126613;1090;102710;-79
2021/07/31 02:55:09;;;;;;;11.00;6.13;;;;;;;18.46;55.72;99262.24;126509;1088;113932;-79
2021/07/31 02:57:59;;;;;;;8.77;6.37;;;;;;;18.42;55.80;99263.45;126742;1089;103612;-79
2021/07/31 03:00:48;;;;;;;10.33;6.77;;;;;;;18.36;56.29;99270.08;126585;1090;114231;-79
2021/07/31 03:03:37;;;;;;;11.67;6.83;;;;;;;18.27;56.77;99275.23;126585;1088;102984;-79
2021/07/31 03:06:26;;;;;;;11.30;7.33;;;;;;;18.15;57.26;99284.98;126486;1090;114260;-79
2021/07/31 03:09:15;;;;;;;12.10;6.73;;;;;;;18.05;57.28;99281.37;126659;1088;103338;-80
2021/07/31 03:12:03;;;;;;;;;;;;;;;17.99;57.28;99272.14;126673;1090;102980;-80
2021/07/31 03:14:54;;;;;;;13.87;7.20;;;;;;;17.94;57.24;99269.00;126567;1089;102890;-78
2021/07/31 03:17:43;;;;;;;11.50;6.70;;;;;;;17.96;57.27;99276.83;126743;1090;102881;-77
2021/07/31 03:20:31;;;;;;;8.90;6.47;;;;;;;17.97;57.32;99279.34;126526;1090;114303;-78
2021/07/31 03:23:22;;;;;;;8.20;6.25;;;;;;;17.97;57.50;99281.98;126803;1088;102874;-78
2021/07/31 03:26:10;;;;;;;10.10;6.17;;;;;;;17.95;57.51;99281.23;126649;1089;113919;-78
2021/07/31 03:28:59;;;;;;;9.63;6.23;;;;;;;17.97;57.47;99278.50;126637;1090;102850;-79
2021/07/31 03:31:51;;;;;;;11.77;6.30;;;;;;;18.00;57.63;99279.09;126500;1089;113977;-78
2021/07/31 03:34:41;;;;;;;10.37;6.67;;;;;;;18.04;57.62;99267.34;126651;1090;102904;-78
2021/07/31 03:37:29;;;;;;;10.20;7.10;;;;;;;18.07;57.74;99271.53;126516;1090;114168;-78
2021/07/31 03:40:17;;;;;;;11.07;7.10;;;;;;;18.08;57.61;99266.13;126766;1089;102980;-78
2021/07/31 03:43:05;;;;;;;10.73;7.10;;;;;;;18.10;57.47;99268.64;126551;1090;114260;-79
2021/07/31 03:45:54;;;;;;;8.47;6.93;;;;;;;18.12;57.24;99270.20;126667;1089;102876;-78
2021/07/31 03:48:42;;;;;;;10.17;6.83;;;;;;;18.16;57.15;99273.45;126532;1090;113428;-78
2021/07/31 03:51:30;;;;;;;14.77;6.63;;;;;;;18.23;57.14;99263.25;126658;1089;102900;-78
2021/07/31 03:54:20;;;;;;;11.60;6.77;;;;;;;18.28;57.11;99261.08;126687;1090;102971;-78
2021/07/31 03:57:08;;;;;;;10.73;5.93;;;;;;;18.34;56.85;99265.88;126492;1089;114095;-77
2021/07/31 04:00:05;;;;;;;8.17;5.90;;;;;;;18.43;56.83;99258.05;126734;1090;102871;-78
2021/07/31 04:03:01;;;;;;;8.50;6.00;;;;;;;18.55;56.50;99258.88;126497;1089;114183;-78
2021/07/31 04:05:49;;;;;;;10.47;6.83;;;;;;;18.65;56.35;99257.19;126756;1090;102871;-78
2021/07/31 04:09:15;;;;;;;8.20;6.25;;;;;;;18.73;56.17;99261.86;126580;1090;114163;-78
2021/07/31 04:12:21;;;;;;;13.53;6.10;;;;;;;18.81;56.05;99254.14;126644;1090;102945;-78
2021/07/31 04:15:30;;;;;;;10.27;6.33;;;;;;;18.90;55.88;99260.48;126655;1090;114254;-78
2021/07/31 04:18:18;;;;;;;10.87;6.53;;;;;;;18.97;55.54;99251.08;126579;1090;102876;-78
2021/07/31 04:21:07;;;;;;;9.57;6.43;;;;;;;19.07;55.55;99248.53;126610;1090;113110;-78
2021/07/31 04:23:55;;;;;;;12.00;6.40;;;;;;;19.17;55.67;99244.14;126781;1090;102753;-78
2021/07/31 04:26:45;;;;;;;9.20;5.63;;;;;;;19.27;55.40;99245.89;126682;1089;113260;-78
2021/07/31 04:29:33;;;;;;;9.80;6.40;;;;;;;19.41;55.53;99235.97;126628;1090;103002;-78
2021/07/31 04:32:20;;;;;;;;;;;;;;;19.52;55.24;99251.75;126716;1090;113815;-78
2021/07/31 04:35:08;;;;;;;12.15;6.60;;;;;;;19.63;54.88;99251.72;126764;1089;102737;-78
2021/07/31 04:37:57;;;;;;;9.57;6.00;;;;;;;19.72;54.52;99266.79;126511;1090;114894;-78
2021/07/31 04:40:44;;;;;;;10.97;5.77;;;;;;;19.81;54.73;99263.38;126669;1090;101676;-78
2021/07/31 04:43:32;;;;;;;;;;;;;;;19.90;54.30;99254.63;126663;1090;114405;-78
2021/07/31 04:46:20;;;;;;;;;;;;;;;20.04;54.26;99260.54;126659;1089;102936;-78
2021/07/31 04:49:08;;;;;;;8.93;6.17;;;;;;;20.14;54.14;99266.72;126561;1090;103014;-78
2021/07/31 04:51:56;;;;;;;10.37;5.97;;;;;;;20.28;54.12;99258.38;126619;1090;102971;-78
2021/07/31 04:54:44;;;;;;;8.47;5.97;;;;;;;20.41;53.62;99259.02;126808;1090;103000;-78
2021/07/31 04:57:32;;;;;;;12.73;6.63;;;;;;;20.48;53.54;99262.82;126513;1090;114208;-78
2021/07/31 05:00:20;;;;;;;12.77;6.17;;;;;;;20.57;53.38;99255.85;126557;1090;103352;-78
2021/07/31 05:03:09;;;;;;;13.43;5.57;;;;;;;20.72;53.50;99261.59;126561;1090;114280;-78
2021/07/31 05:05:57;;;;;;;8.17;6.20;;;;;;;20.92;53.45;99254.50;126796;1089;105123;-78
2021/07/31 05:08:45;;;;;;;14.00;6.17;;;;;;;21.13;52.90;99261.33;126658;1089;113948;-78
2021/07/31 05:11:33;;;;;;;10.77;6.20;;;;;;;21.38;52.72;99264.43;126725;1090;102969;-78
2021/07/31 05:14:22;;;;;;;10.57;6.20;;;;;;;21.62;52.00;99259.48;126677;1089;114434;-78
2021/07/31 05:17:09;;;;;;;9.80;5.80;;;;;;;21.84;51.30;99255.64;126717;1089;102908;-78
2021/07/31 05:19:57;;;;;;;;;;;;;;;22.18;51.30;99265.75;126485;1089;114091;-78
2021/07/31 05:22:45;;;;;;;8.15;3.70;;;;;;;22.93;50.28;99261.95;126677;1090;103008;-78
2021/07/31 05:25:33;;;;;;;10.87;4.70;;;;;;;24.87;48.70;99260.59;126508;1089;114105;-78
2021/07/31 05:28:22;;;;;;;9.47;4.20;;;;;;;27.02;45.16;99248.03;126652;1090;103111;-78
2021/07/31 05:31:18;;;;;;;8.33;3.87;;;;;;;29.19;42.62;99243.16;126627;1090;102900;-78
2021/07/31 05:34:06;;;;;;;7.50;3.37;;;;;;;31.05;39.93;99244.99;126637;1089;102887;-78
2021/07/31 05:36:54;;;;;;;6.33;3.50;;;;;;;32.38;36.59;99239.27;126697;1089;103061;-78
2021/07/31 05:39:43;;;;;;;7.20;3.10;;;;;;;33.40;34.51;99232.02;126556;1088;114280;-79
2021/07/31 05:42:35;;;;;;;5.90;3.30;;;;;;;33.98;33.32;99230.84;126783;1090;102919;-79
2021/07/31 05:45:24;;;;;;;8.40;2.83;;;;;;;35.31;31.63;99222.55;126543;1090;114011;-79
2021/07/31 05:48:12;;;;;;;6.37;3.43;;;;;;;36.70;30.12;99225.30;126617;1090;102917;-79
2021/07/31 05:50:59;;;;;;;5.03;3.03;;;;;;;37.95;28.23;99215.94;126530;1090;113913;-79
2021/07/31 05:53:47;;;;;;;3.30;2.40;;;;;;;38.96;26.62;99219.83;126801;1090;102824;-79
2021/07/31 05:56:35;;;;;;;6.47;2.67;;;;;;;39.98;25.33;99223.30;126514;1089;113967;-79
2021/07/31 05:59:27;;;;;;;5.87;2.43;;;;;;;40.91;24.45;99222.51;126615;1089;103011;-79
2021/07/31 06:02:15;;;;;;;3.80;2.40;;;;;;;41.50;23.37;99219.24;126530;1090;114280;-78
2021/07/31 06:05:02;;;;;;;9.40;2.50;;;;;;;41.31;22.33;99219.81;126773;1090;101794;-78
2021/07/31 06:07:51;;;;;;;2.90;2.30;;;;;;;41.77;21.50;99219.73;126632;1089;114163;-78
2021/07/31 06:10:39;;;;;;;8.00;2.50;;;;;;;41.80;21.19;99223.83;126582;1089;102858;-78
2021/07/31 06:13:26;;;;;;;5.27;2.47;;;;;;;41.52;20.57;99219.78;126661;1089;103366;-78
2021/07/31 06:16:14;;;;;;;7.33;2.63;;;;;;;41.47;20.37;99220.59;126582;1090;113686;-79
2021/07/31 06:19:03;;;;;;;7.80;2.60;;;;;;;41.40;19.99;99221.98;126664;1089;104164;-78
2021/07/31 06:21:51;;;;;;;6.33;2.53;;;;;;;41.71;19.88;99226.33;126495;1090;113984;-79
2021/07/31 06:24:39;;;;;;;23.27;3.60;;;;;;;42.10;19.19;99212.80;126597;1090;102872;-79
2021/07/31 06:27:31;;;;;;;14.70;3.40;;;;;;;42.57;18.84;99216.97;126654;1090;114426;-78
2021/07/31 06:30:20;;;;;;;4.97;2.40;;;;;;;42.72;18.41;99214.09;126634;1090;103096;-78
2021/07/31 06:33:08;;;;;;;4.60;2.20;;;;;;;42.65;17.49;99210.05;126538;1090;113961;-78
2021/07/31 06:35:56;;;;;;;6.37;2.27;;;;;;;42.85;17.88;99207.16;126629;1090;102886;-79
2021/07/31 06:38:43;;;;;;;10.65;2.50;;;;;;;42.87;16.66;99215.91;126539;1089;114230;-79
2021/07/31 06:41:32;;;;;;;30.80;5.10;;;;;;;42.35;17.06;99206.36;126663;1090;102797;-79
2021/07/31 06:44:19;;;;;;;18.60;3.80;;;;;;;40.80;17.38;99220.84;126478;1088;114767;-78
2021/07/31 06:47:08;;;;;;;7.53;2.60;;;;;;;39.22;18.72;99206.42;126691;1089;101603;-79
2021/07/31 06:49:56;;;;;;;17.93;3.57;;;;;;;38.66;19.53;99206.73;126674;1090;114120;-78
2021/07/31 06:52:44;;;;;;;7.30;3.00;;;;;;;38.16;19.94;99212.38;126598;1090;102743;-78
2021/07/31 06:55:32;;;;;;;9.10;3.10;;;;;;;38.01;20.49;99217.63;126592;1089;102935;-78
2021/07/31 06:58:19;;;;;;;7.80;2.77;;;;;;;38.33;20.60;99217.78;126547;1090;112679;-78
2021/07/31 07:01:14;;;;;;;13.73;3.23;;;;;;;38.93;20.35;99219.50;126667;1090;103962;-78
2021/07/31 07:04:03;;;;;;;8.10;2.20;;;;;;;39.28;19.29;99224.45;126504;1088;114121;-78
2021/07/31 07:06:52;;;;;;;7.13;2.17;;;;;;;39.31;19.13;99225.83;126648;1088;103479;-78
2021/07/31 07:09:39;;;;;;;7.60;2.57;;;;;;;39.30;18.59;99233.20;126660;1089;114135;-77
2021/07/31 07:12:27;;;;;;;3.03;2.17;;;;;;;39.02;18.72;99238.95;126533;1088;103729;-78
2021/07/31 07:15:16;;;;;;;6.67;2.40;;;;;;;38.72;18.65;99220.40;126507;1089;113916;-78
2021/07/31 07:18:04;;;;;;;2.73;2.03;;;;;;;38.36;19.23;99219.99;126636;1089;103221;-78
2021/07/31 07:20:52;;;;;;;5.47;2.40;;;;;;;38.67;19.64;99210.28;126628;1090;114102;-79
2021/07/31 07:23:40;;;;;;;8.30;2.80;;;;;;;39.26;20.01;99207.53;126638;1089;103009;-79
2021/07/31 07:26:28;;;;;;;5.33;2.50;;;;;;;39.33;18.95;99210.88;126445;1090;114525;-79
2021/07/31 07:29:16;;;;;;;4.45;2.30;;;;;;;39.09;18.66;99212.31;126629;1090;103007;-79
2021/07/31 07:32:06;;;;;;;5.10;2.33;;;;;;;39.10;19.11;99208.50;126653;1088;114089;-79
2021/07/31 07:34:54;;;;;;;5.97;2.10;;;;;;;38.86;19.42;99208.82;126627;1090;103067;-79
2021/07/31 07:37:41;;;;;;;8.13;2.60;;;;;;;38.57;19.38;99200.05;126640;1089;103328;-79
2021/07/31 07:40:29;;;;;;;10.77;2.63;;;;;;;37.95;20.11;99188.71;126506;1090;112859;-79
2021/07/31 07:43:17;;;;;;;5.40;2.97;;;;;;;37.61;20.16;99196.94;126682;1090;103932;-79
2021/07/31 07:46:11;;;;;;;8.53;3.27;;;;;;;37.57;20.48;99195.80;126575;1090;112829;-79
2021/07/31 07:49:00;;;;;;;8.10;3.10;;;;;;;37.35;20.70;99186.78;126648;1089;102976;-79
2021/07/31 07:51:48;;;;;;;6.90;3.10;;;;;;;37.31;21.09;99191.05;126683;1089;113961;-78
2021/07/31 07:54:35;;;;;;;7.03;2.77;;;;;;;37.45;20.82;99182.30;126658;1090;102870;-78
2021/07/31 07:57:23;;;;;;;6.97;2.80;;;;;;;38.00;20.39;99189.59;126604;1089;114451;-78
2021/07/31 08:00:12;;;;;;;5.13;2.90;;;;;;;38.33;19.96;99191.38;126679;1089;102932;-78
2021/07/31 08:02:59;;;;;;;7.90;3.10;;;;;;;38.62;20.13;99186.50;126516;1089;114050;-78
2021/07/31 08:05:48;;;;;;;6.77;3.00;;;;;;;38.48;20.00;99189.89;126645;1090;102725;-77
2021/07/31 08:08:36;;;;;;;5.93;2.97;;;;;;;37.55;20.49;99181.63;126547;1088;113316;-79
2021/07/31 08:11:24;;;;;;;5.83;3.20;;;;;;;36.65;21.47;99188.02;126682;1090;102914;-78
2021/07/31 08:14:11;;;;;;;8.73;3.43;;;;;;;35.83;21.64;99201.80;126541;1090;114264;-77
2021/07/31 08:16:59;;;;;;;5.60;3.37;;;;;;;34.80;23.02;99197.68;126604;1090;102905;-77
2021/07/31 08:19:48;;;;;;;7.97;3.37;;;;;;;34.02;24.01;99200.39;126635;1090;102886;-78
2021/07/31 08:22:36;;;;;;;11.57;4.10;;;;;;;33.38;25.00;99212.47;126544;1090;113935;-78
2021/07/31 08:25:27;;;;;;;6.03;3.70;;;;;;;32.59;25.73;99216.53;126636;1090;103675;-79
2021/07/31 08:28:14;;;;;;;6.80;3.40;;;;;;;31.93;26.24;99211.38;126489;1090;113930;-79
2021/07/31 08:31:02;;;;;;;6.33;3.53;;;;;;;31.31;27.29;99210.03;126631;1090;102870;-79
2021/07/31 08:33:51;;;;;;;7.03;4.00;;;;;;;30.85;28.49;99207.27;126486;1090;113936;-78
2021/07/31 08:36:39;;;;;;;6.90;3.80;;;;;;;30.44;29.11;99205.51;126709;1090;102872;-79
2021/07/31 08:39:27;;;;;;;6.60;3.97;;;;;;;30.12;30.22;99206.20;126598;1089;113273;-79
2021/07/31 08:42:15;;;;;;;9.83;4.07;;;;;;;29.75;30.35;99211.78;126640;1090;102705;-79
2021/07/31 08:45:05;;;;;;;5.63;3.70;;;;;;;29.44;31.35;99204.13;126652;1090;113035;-79
2021/07/31 08:47:55;;;;;;;7.73;3.83;;;;;;;29.22;31.66;99210.55;126639;1090;102855;-79
2021/07/31 08:50:45;;;;;;;7.57;4.10;;;;;;;28.83;32.42;99211.00;126602;1089;114164;-77
2021/07/31 08:53:33;;;;;;;6.47;4.13;;;;;;;28.45;33.36;99207.71;126747;1090;102875;-78
2021/07/31 08:56:21;;;;;;;10.97;4.30;;;;;;;28.21;34.18;99208.85;126573;1090;114193;-78
2021/07/31 08:59:10;;;;;;;14.20;4.70;;;;;;;28.18;34.47;99207.35;126624;1089;103066;-78
2021/07/31 09:01:58;;;;;;;10.10;3.77;;;;;;;28.07;34.56;99215.89;126653;1090;103354;-79
2021/07/31 09:04:50;;;;;;;6.90;3.80;;;;;;;27.99;34.33;99219.48;126570;1089;114088;-78
2021/07/31 09:07:39;;;;;;;8.97;4.20;;;;;;;27.89;34.34;99207.41;126722;1090;103335;-78
2021/07/31 09:10:29;;;;;;;8.97;4.40;;;;;;;27.82;34.29;99203.78;126430;1090;114173;-79
2021/07/31 09:13:18;;;;;;;5.63;3.73;;;;;;;27.77;34.47;99200.84;126602;1090;102951;-79
2021/07/31 09:16:11;;;;;;;8.40;4.30;;;;;;;27.78;34.74;99194.46;126584;1089;113948;-79
2021/07/31 09:19:10;;;;;;;6.17;3.80;;;;;;;27.76;34.82;99201.86;126684;1090;103004;-79
2021/07/31 09:22:07;;;;;;;7.77;4.17;;;;;;;27.71;34.96;99190.87;126524;1090;114202;-79
2021/07/31 09:25:10;;;;;;;7.43;4.20;;;;;;;27.69;34.96;99185.70;126660;1089;102923;-79
2021/07/31 09:28:17;;;;;;;9.30;4.20;;;;;;;27.81;35.08;99194.91;126562;1088;114267;-79
2021/07/31 09:31:05;;;;;;;5.30;4.33;;;;;;;27.96;35.16;99186.88;126642;1090;102967;-79
2021/07/31 09:33:53;;;;;;;5.53;4.17;;;;;;;28.14;34.85;99173.08;126700;1090;115505;-79
2021/07/31 09:36:42;;;;;;;11.00;4.10;;;;;;;28.40;34.29;99168.06;126704;1090;102879;-79
2021/07/31 09:40:05;;;;;;;5.03;3.53;;;;;;;28.59;34.21;99171.97;126572;1090;114294;-79
2021/07/31 09:42:53;;;;;;;8.93;4.40;;;;;;;28.73;34.69;99176.45;126187;1092;102827;-78
2021/07/31 09:45:42;;;;;;;9.83;4.30;;;;;;;28.85;34.54;99172.20;126452;1092;114277;-79
2021/07/31 09:48:32;;;;;;;6.40;4.07;;;;;;;28.90;34.28;99174.34;126569;1091;102969;-79
2021/07/31 09:51:32;;;;;;;13.00;4.67;;;;;;;28.99;33.66;99172.36;126395;1092;113930;-78
2021/07/31 09:54:22;;;;;;;9.83;4.30;;;;;;;29.07;33.87;99174.89;126177;1092;104469;-79
2021/07/31 09:57:11;;;;;;;8.57;4.60;;;;;;;29.22;33.77;99164.89;126023;1093;113986;-79
2021/07/31 10:00:03;;;;;;;5.83;3.90;;;;;;;29.43;33.58;99159.46;126520;1093;102870;-79
2021/07/31 10:02:56;;;;;;;6.80;4.00;;;;;;;29.63;33.68;99164.19;126080;1093;114162;-79
2021/07/31 10:05:45;;;;;;;7.27;4.50;;;;;;;29.88;33.44;99169.89;126293;1092;102946;-78
2021/07/31 10:08:52;;;;;;;8.57;4.17;;;;;;;30.01;32.97;99161.89;126132;1093;114190;-78
2021/07/31 10:11:43;;;;;;;7.77;3.97;;;;;;;30.22;33.11;99150.20;126247;1092;104927;-78
2021/07/31 10:14:31;;;;;;;9.13;4.47;;;;;;;30.26;32.62;99151.45;126110;1092;114269;-78
2021/07/31 10:17:28;;;;;;;6.60;4.50;;;;;;;30.21;32.77;99156.61;126423;1093;102861;-78
2021/07/31 10:20:32;;;;;;;11.57;4.60;;;;;;;30.11;32.68;99156.15;126693;1089;102945;-78
2021/07/31 10:23:56;;;;;;;8.77;4.30;;;;;;;30.13;32.80;99152.22;126634;1090;102933;-78
2021/07/31 10:27:15;;;;;;;9.53;4.63;;;;;;;30.11;32.77;99156.15;126802;1090;102846;-78
2021/07/31 10:30:22;;;;;;;13.27;5.03;;;;;;;30.06;33.42;99165.66;126621;1089;102900;-77
2021/07/31 10:33:30;;;;;;;;;;;;;;;29.71;33.29;99161.32;126731;1090;102650;-79
2021/07/31 10:36:41;;;;;;;9.33;5.20;;;;;;;29.43;34.08;99169.38;126820;1090;102857;-79
2021/07/31 10:39:29;;;;;;;9.23;4.87;;;;;;;29.22;34.11;99162.21;126639;1088;102964;-78
2021/07/31 10:42:17;;;;;;;10.73;4.97;;;;;;;29.26;35.10;99158.10;126520;1089;113725;-78
2021/07/31 10:45:23;;;;;;;9.00;5.43;;;;;;;29.27;34.62;99164.34;126656;1090;103464;-79
2021/07/31 10:48:27;;;;;;;7.40;5.37;;;;;;;29.33;34.84;99152.80;126690;1090;113800;-79
2021/07/31 10:51:41;;;;;;;9.60;5.60;;;;;;;29.38;35.34;99156.55;126642;1090;102882;-78
2021/07/31 10:55:00;;;;;;;11.53;5.83;;;;;;;29.36;35.58;99163.97;126673;1089;113779;-78
2021/07/31 10:57:54;;;;;;;9.80;5.30;;;;;;;29.23;35.59;99158.50;126615;1090;103017;-78
2021/07/31 11:00:52;;;;;;;9.13;5.83;;;;;;;29.14;35.22;99155.14;126648;1089;113989;-78
2021/07/31 11:03:42;;;;;;;10.53;5.63;;;;;;;28.99;36.14;99150.89;126649;1090;102855;-78
2021/07/31 11:07:10;;;;;;;7.73;5.07;;;;;;;28.79;36.04;99151.52;126544;1090;114512;-79
2021/07/31 11:10:30;;;;;;;8.80;5.20;;;;;;;28.55;36.25;99159.97;126793;1087;102884;-79
2021/07/31 11:13:19;;;;;;;9.63;5.87;;;;;;;28.21;37.14;99158.75;126790;1089;102785;-79
2021/07/31 11:16:07;;;;;;;8.37;5.27;;;;;;;28.00;37.13;99158.67;126823;1090;102889;-79
2021/07/31 11:18:58;;;;;;;7.23;5.60;;;;;;;27.91;37.38;99165.17;126526;1088;113926;-79
2021/07/31 11:21:49;;;;;;;7.60;5.50;;;;;;;27.82;38.32;99164.42;126678;1090;103063;-79
2021/07/31 11:24:37;;;;;;;12.03;6.37;;;;;;;27.84;38.53;99161.59;126582;1089;113266;-79
2021/07/31 11:27:25;;;;;;;7.73;5.23;;;;;;;27.75;39.09;99168.05;126616;1090;102872;-79
2021/07/31 11:30:13;;;;;;;8.17;6.00;;;;;;;27.56;39.20;99159.52;126577;1089;114297;-79
2021/07/31 11:33:23;;;;;;;8.17;5.73;;;;;;;27.46;39.51;99168.83;126593;1089;102943;-78
2021/07/31 11:36:13;;;;;;;5.90;5.20;;;;;;;27.26;40.33;99160.50;126588;1088;114283;-78
2021/07/31 11:39:02;;;;;;;8.67;5.40;;;;;;;27.08;41.11;99164.34;126703;1089;102868;-78
2021/07/31 11:41:51;;;;;;;7.05;5.10;;;;;;;26.99;40.88;99167.26;126474;1089;114012;-78
2021/07/31 11:44:39;;;;;;;6.97;5.40;;;;;;;26.91;41.43;99165.47;126656;1089;103371;-79
2021/07/31 11:47:29;;;;;;;8.90;5.30;;;;;;;26.88;41.72;99155.13;126532;1090;114306;-79
2021/07/31 11:50:18;;;;;;;8.77;5.50;;;;;;;26.88;42.06;99152.45;126628;1089;102924;-79
2021/07/31 11:53:24;;;;;;;7.88;5.33;;;;;;;26.88;41.63;99149.78;126575;1090;114353;-79
2021/07/31 11:56:19;;;;;;;7.57;5.73;;;;;;;26.89;42.23;99145.26;126572;1090;104083;-78
2021/07/31 11:59:09;;;;;;;9.90;5.73;;;;;;;26.86;42.43;99143.78;126677;1090;114059;-78
2021/07/31 12:01:58;;;;;;;9.50;6.50;;;;;;;26.79;42.47;99151.70;126616;1090;102673;-78
2021/07/31 12:04:51;;;;;;;10.57;6.10;;;;;;;26.75;43.21;99146.88;126670;1090;103039;-78
2021/07/31 12:07:39;;;;;;;7.67;5.97;;;;;;;26.72;43.19;99141.88;126637;1090;101042;-78
2021/07/31 12:10:27;;;;;;;9.60;6.00;;;;;;;26.77;43.42;99142.20;126533;1090;103113;-78
2021/07/31 12:13:15;;;;;;;9.47;6.40;;;;;;;26.81;43.52;99130.13;126499;1090;113081;-78
2021/07/31 12:16:02;;;;;;;9.20;6.67;;;;;;;26.82;43.80;99129.11;126636;1089;103341;-78
2021/07/31 12:18:51;;;;;;;9.33;6.43;;;;;;;26.92;43.83;99128.84;126551;1090;113147;-78
2021/07/31 12:21:40;;;;;;;7.80;5.90;;;;;;;26.96;43.43;99125.64;126584;1090;103092;-78
2021/07/31 12:24:27;;;;;;;9.27;6.90;;;;;;;26.97;43.66;99124.63;126461;1090;114104;-78
2021/07/31 12:27:15;;;;;;;8.30;6.57;;;;;;;26.97;44.21;99127.30;126676;1088;102973;-78
2021/07/31 12:30:43;;;;;;;11.83;6.90;;;;;;;26.98;43.86;99117.44;126475;1089;114286;-78
2021/07/31 12:33:41;;;;;;;10.00;7.37;;;;;;;27.04;44.76;99125.59;126221;1092;103476;-79
2021/07/31 12:36:53;;;;;;;10.00;7.13;;;;;;;27.00;44.48;99121.62;126268;1092;114312;-79
2021/07/31 12:39:42;;;;;;;13.03;7.87;;;;;;;26.97;44.72;99123.80;126498;1092;103329;-79
2021/07/31 12:42:30;;;;;;;10.37;7.63;;;;;;;27.02;45.09;99130.29;126161;1092;114360;-79
2021/07/31 12:45:18;;;;;;;8.17;6.80;;;;;;;27.07;45.17;99117.19;126518;1093;102789;-79
2021/07/31 12:48:06;;;;;;;10.73;7.07;;;;;;;27.10;44.83;99116.81;126147;1092;114137;-78
2021/07/31 12:50:54;;;;;;;8.60;7.07;;;;;;;27.13;45.20;99125.52;126493;1093;103018;-79
2021/07/31 12:53:43;;;;;;;11.23;7.20;;;;;;;27.16;45.36;99130.50;126083;1092;114504;-79
2021/07/31 12:56:31;;;;;;;9.63;7.13;;;;;;;27.19;45.25;99128.28;126469;1092;102919;-79
2021/07/31 12:59:19;;;;;;;9.33;6.67;;;;;;;27.33;44.90;99138.19;126353;1092;114319;-77
2021/07/31 13:02:16;;;;;;;12.15;7.75;;;;;;;27.51;44.76;99129.79;126312;1091;102945;-77
2021/07/31 13:05:04;;;;;;;10.73;8.27;;;;;;;27.51;44.87;99145.03;126254;1092;102828;-78
2021/07/31 13:07:54;;;;;;;10.27;7.67;;;;;;;27.40;44.68;99138.27;126123;1093;113953;-78